Marla, Australia
Current Conditions -  °F | °C
As of 1:00 PM on Saturday 20 Dec 2014 (Local Time) from YCBP Reporting Station
Clear Clear  
Wind Chill: 95°   Ceiling: Unl
Heat Index: 95°   Visibility: NA
Dew Point: 30°   Wind: 7mph
Humidity: 10%   Direction: 110°ESE
Pressure: 29.91"   Gusts: NA
Location:  27.31°S, 133.62°E
Report Text: YCBP 200300Z AUTO 11006KT 060V160 //// // NCD 35/M01 Q1013
Loading
Personal Weather Stations






























Interactive Weather Map New forecast layout! Learn more

10-Day Weather Forecast

Advertisements
Track Severe Weather on mobile